Portada
Imágenes satélite Pronóstico 10 díasClimaPredicción Marítima Ciclones Rayo AeropuertosFAQ Noticias Acerca
El tiempo : Europa África América del Norte América del Sur Asia Australia-Oceanía Otros
Idiomas Contacto

Vitória, Espírito Santo, Brasil

latitud: 20-16S, longitud: 040-17W, altitud: 4 m


METAR: SBVT 260800Z 32001KT CAVOK 17/16 Q1016
TAF: SBVT 260100Z 2606/2706 32005KT CAVOK TN18/2607Z TX28/2616Z PROB30 TEMPO 2615/2620 05008KT 9999 SCT020 RMK PBH

Hora: 06:22 (09:22 UTC)

Observación

El informe se hizo hace 1 hora y 22 minutos, a las 08:00 UTC
Viento 1 kt del noroeste
Temperatura 17°C
Humedad 94%
Presión 1016 hPa
Visibilidad 10 km o más
sin nubes por debajo de 1500 m y sin presencia de cumulonimbus.

Cambiar las unidades

Pronóstico

El informe se hizo hace 8 horas y 22 minutos, a las 01:00 UTC
Pronóstico válido del 26 a las 06 UTC al 27 a las 06 UTC
Viento 5 kt del noroeste
Visibilidad 10 km o más
sin nubes por debajo de 1500 m y sin presencia de cumulonimbus.
Probabilidad 30% :
Temporalmente
del 26 a las 15 UTC al 26 a las 20 UTC
Viento 8 kt del noreste
Visibilidad 10 km o más
Nubes dispersas a una altura de 2000 ft
La información que se ofrece en estas páginas está sujeta a una cláusula de exención de responsabilidad
El tiempo : Europa África América del Norte América del Sur Asia Australia-Oceanía Otros
Imágenes satélite Pronóstico 10 díasClimaPredicción Marítima Ciclones Rayo AeropuertosFAQ Idiomas Contacto Noticias Acerca